createdAt,value
2019-05-09T00:01:58.307Z,99448.06
2019-05-09T00:04:33.482Z,99448.06
2019-05-09T00:07:07.412Z,99446.48
2019-05-09T00:09:41.112Z,99461.83
2019-05-09T00:12:14.828Z,99452.11
2019-05-09T00:14:48.519Z,99456.17
2019-05-09T00:17:23.265Z,99459.63
2019-05-09T00:19:57.153Z,99459.63
2019-05-09T00:22:33.246Z,99460.80
2019-05-09T00:25:07.103Z,99460.80
2019-05-09T00:27:40.812Z,99460.20
2019-05-09T00:30:14.515Z,99460.80
2019-05-09T00:32:48.226Z,99456.38
2019-05-09T00:35:23.369Z,99456.38
2019-05-09T00:37:57.237Z,99454.36
2019-05-09T00:40:30.940Z,99460.25
2019-05-09T00:43:04.646Z,99460.66
2019-05-09T00:45:38.344Z,99460.66
2019-05-09T00:48:14.011Z,99460.03
2019-05-09T00:50:47.470Z,99460.03
2019-05-09T00:53:23.101Z,99459.22
2019-05-09T00:55:56.587Z,99463.47
2019-05-09T00:58:30.287Z,99463.47
2019-05-09T01:01:04.514Z,99451.73
2019-05-09T01:03:38.396Z,99449.92
2019-05-09T01:06:13.457Z,99449.92
2019-05-09T01:08:47.295Z,99457.41
2019-05-09T01:11:21.139Z,99450.33
2019-05-09T01:13:54.866Z,99450.33
2019-05-09T01:16:28.551Z,99457.19
2019-05-09T01:19:03.657Z,99457.19
2019-05-09T01:21:37.544Z,99461.83
2019-05-09T01:24:11.272Z,99461.83
2019-05-09T01:26:46.616Z,99454.55
2019-05-09T01:29:20.532Z,99461.22
2019-05-09T01:31:54.223Z,99455.95
2019-05-09T01:34:27.940Z,99463.64
2019-05-09T01:37:03.494Z,99459.17
2019-05-09T01:39:37.477Z,99459.17
2019-05-09T01:42:11.175Z,99467.74
2019-05-09T01:44:44.886Z,99467.74
2019-05-09T01:47:18.599Z,99472.47
2019-05-09T01:49:53.839Z,99467.34
2019-05-09T01:52:27.762Z,99467.34
2019-05-09T01:55:03.659Z,99479.66
2019-05-09T01:57:36.927Z,99475.37
2019-05-09T02:00:10.639Z,99475.37
2019-05-09T02:02:44.346Z,99476.06
2019-05-09T02:05:18.328Z,99473.61
2019-05-09T02:07:54.107Z,99480.89
2019-05-09T02:10:27.437Z,99480.89
2019-05-09T02:13:03.058Z,99478.88
2019-05-09T02:15:37.149Z,99479.26
2019-05-09T02:18:10.872Z,99480.20
2019-05-09T02:20:44.849Z,99480.20
2019-05-09T02:23:18.555Z,99477.10
2019-05-09T02:26:13.589Z,99480.33
2019-05-09T02:28:47.106Z,99489.86
2019-05-09T02:31:20.825Z,99486.27
2019-05-09T02:33:54.544Z,99475.97
2019-05-09T02:36:29.592Z,99480.69
2019-05-09T02:39:08.919Z,99479.34
2019-05-09T02:41:59.584Z,99467.47
2019-05-09T02:44:19.533Z,99477.13
2019-05-09T02:46:52.571Z,99477.13
2019-05-09T02:49:28.718Z,99468.50
2019-05-09T02:52:01.974Z,99473.35
2019-05-09T02:54:39.097Z,99480.52
2019-05-09T02:57:11.090Z,99480.46
2019-05-09T02:59:44.790Z,99480.09
2019-05-09T03:02:19.508Z,99480.67
2019-05-09T03:04:53.500Z,99480.67
2019-05-09T03:07:28.825Z,99481.73
2019-05-09T03:10:03.755Z,99481.73
2019-05-09T03:12:39.860Z,99477.28
2019-05-09T03:15:13.422Z,99482.55
2019-05-09T03:17:49.440Z,99482.55
2019-05-09T03:20:22.525Z,99479.51
2019-05-09T03:22:58.272Z,99479.51
2019-05-09T03:25:31.988Z,99486.11
2019-05-09T03:28:05.702Z,99481.48
2019-05-09T03:30:39.942Z,99481.06
2019-05-09T03:33:13.721Z,99481.06
2019-05-09T03:35:48.194Z,99482.31
2019-05-09T03:38:21.907Z,99482.28
2019-05-09T03:40:57.899Z,99487.01
2019-05-09T03:43:31.189Z,99487.01
2019-05-09T03:46:04.898Z,99493.54
2019-05-09T03:48:38.601Z,99495.48
2019-05-09T03:51:13.125Z,99495.48
2019-05-09T03:53:48.394Z,99486.51
2019-05-09T03:56:22.302Z,99486.51
2019-05-09T03:58:57.855Z,99493.17
2019-05-09T04:01:31.417Z,99489.67
2019-05-09T04:04:05.115Z,99484.23
2019-05-09T04:06:39.285Z,99484.23
2019-05-09T04:09:13.141Z,99508.05
2019-05-09T04:11:48.497Z,99510.42
2019-05-09T04:14:22.430Z,99503.20
2019-05-09T04:16:57.541Z,99501.19
2019-05-09T04:19:31.426Z,99506.67
2019-05-09T04:22:05.153Z,99506.67
2019-05-09T04:24:38.880Z,99511.97
2019-05-09T04:27:13.272Z,99511.97
2019-05-09T04:29:48.402Z,99517.12
2019-05-09T04:32:22.254Z,99521.86
2019-05-09T04:34:57.804Z,99521.86
2019-05-09T04:37:31.378Z,99518.27
2019-05-09T04:40:05.115Z,99519.70
2019-05-09T04:42:43.020Z,99516.68
2019-05-09T04:45:14.218Z,99516.68
2019-05-09T04:47:47.962Z,99518.13
2019-05-09T04:50:24.893Z,99522.39
2019-05-09T04:52:58.022Z,99522.39
2019-05-09T04:55:31.852Z,99529.20
2019-05-09T04:58:05.562Z,99529.20
2019-05-09T05:00:39.271Z,99530.81
2019-05-09T05:03:13.524Z,99531.41
2019-05-09T05:05:48.212Z,99543.09
2019-05-09T05:08:22.034Z,99542.20
2019-05-09T05:10:58.089Z,99542.20
2019-05-09T05:13:31.150Z,99547.53
2019-05-09T05:16:04.916Z,99545.09
2019-05-09T05:18:38.639Z,99550.66
2019-05-09T05:21:12.322Z,99549.59
2019-05-09T05:23:47.258Z,99553.51
2019-05-09T05:26:21.016Z,99553.51
2019-05-09T05:28:54.715Z,99553.69
2019-05-09T05:31:28.689Z,99555.05
2019-05-09T05:34:02.527Z,99559.09
2019-05-09T05:36:38.232Z,99560.59
2019-05-09T05:39:11.663Z,99568.67
2019-05-09T05:41:45.371Z,99569.31
2019-05-09T05:44:19.092Z,99569.31
2019-05-09T05:46:52.826Z,99570.89
2019-05-09T05:49:27.930Z,99575.30
2019-05-09T05:52:01.817Z,99570.84
2019-05-09T05:54:37.679Z,99572.02
2019-05-09T05:57:10.943Z,99571.91
2019-05-09T05:59:44.675Z,99577.90
2019-05-09T06:02:18.385Z,99578.17
2019-05-09T06:04:52.084Z,99573.64
2019-05-09T06:07:25.792Z,99573.64
2019-05-09T06:09:59.496Z,99578.37
2019-05-09T06:12:33.223Z,99576.53
2019-05-09T06:15:07.557Z,99575.95
2019-05-09T06:17:41.499Z,99575.95
2019-05-09T06:20:17.595Z,99578.55
2019-05-09T06:22:50.620Z,99578.55
2019-05-09T06:25:24.383Z,99574.77
2019-05-09T06:27:58.557Z,99577.52
2019-05-09T06:30:32.730Z,99573.46
2019-05-09T06:33:08.969Z,99586.94
2019-05-09T06:35:41.980Z,99586.94
2019-05-09T06:38:15.707Z,99593.52
2019-05-09T06:40:49.416Z,99593.52
2019-05-09T06:43:23.114Z,99595.73
2019-05-09T06:45:57.555Z,99594.80
2019-05-09T06:48:31.335Z,99599.73
2019-05-09T06:51:07.202Z,99599.73
2019-05-09T06:53:40.456Z,99586.67
2019-05-09T06:56:14.153Z,99591.96
2019-05-09T06:58:48.215Z,99591.96
2019-05-09T07:01:22.055Z,99590.94
2019-05-09T07:03:57.534Z,99587.30
2019-05-09T07:06:31.366Z,99587.30
2019-05-09T07:09:08.423Z,99598.77
2019-05-09T07:11:42.284Z,99603.29
2019-05-09T07:14:26.665Z,99593.00
2019-05-09T07:16:51.411Z,99594.22
2019-05-09T07:19:25.113Z,99599.28
2019-05-09T07:21:58.853Z,99599.28
2019-05-09T07:24:32.545Z,99594.87
2019-05-09T07:27:07.330Z,99591.03
2019-05-09T07:29:41.143Z,99580.09
2019-05-09T07:32:14.849Z,99580.09
2019-05-09T07:34:48.565Z,99592.25
2019-05-09T07:37:22.274Z,99586.39
2019-05-09T07:39:57.747Z,99589.21
2019-05-09T07:42:31.380Z,99587.40
2019-05-09T07:45:05.833Z,99585.79
2019-05-09T07:47:39.545Z,99583.96
2019-05-09T07:50:13.835Z,99583.96
2019-05-09T07:52:47.897Z,99584.56
2019-05-09T07:55:21.831Z,99582.52
2019-05-09T07:57:58.160Z,99580.92
2019-05-09T08:00:32.901Z,99580.92
2019-05-09T08:03:09.250Z,99581.68
2019-05-09T08:05:42.034Z,99587.76
2019-05-09T08:08:18.334Z,99585.95
2019-05-09T08:10:51.401Z,99581.09
2019-05-09T08:13:25.092Z,99586.34
2019-05-09T08:15:58.917Z,99571.25
2019-05-09T08:18:32.588Z,99571.25
2019-05-09T08:21:08.277Z,99584.56
2019-05-09T08:23:41.773Z,99585.17
2019-05-09T08:26:15.466Z,99588.38
2019-05-09T08:28:49.207Z,99588.38
2019-05-09T08:31:22.940Z,99578.83
2019-05-09T08:33:59.047Z,99579.26
2019-05-09T08:36:32.034Z,99583.17
2019-05-09T08:39:08.118Z,99578.88
2019-05-09T08:41:43.564Z,99583.44
2019-05-09T08:44:18.702Z,99583.44
2019-05-09T08:46:52.558Z,99585.19
2019-05-09T08:49:28.556Z,99583.80
2019-05-09T08:52:15.474Z,99583.80
2019-05-09T08:54:38.040Z,99583.56
2019-05-09T08:57:13.062Z,99593.75
2019-05-09T08:59:50.224Z,99596.89
2019-05-09T09:02:22.589Z,99594.50
2019-05-09T09:04:58.224Z,99597.09
2019-05-09T09:07:31.874Z,99590.73
2019-05-09T09:10:08.212Z,99590.73
2019-05-09T09:12:41.125Z,99591.98
2019-05-09T09:15:14.820Z,99591.98
2019-05-09T09:17:49.266Z,99595.58
2019-05-09T09:20:22.984Z,99594.84
2019-05-09T09:22:58.198Z,99594.84
2019-05-09T09:25:32.330Z,99589.67
2019-05-09T09:28:08.496Z,99589.67
2019-05-09T09:30:41.435Z,99583.23
2019-05-09T09:33:17.470Z,99581.41
2019-05-09T09:35:50.567Z,99581.41
2019-05-09T09:38:24.298Z,99591.20
2019-05-09T09:40:58.202Z,99590.52
2019-05-09T09:43:32.027Z,99590.52
2019-05-09T09:46:11.829Z,99579.55
2019-05-09T09:48:41.126Z,99579.55
2019-05-09T09:51:14.829Z,99583.85
2019-05-09T09:53:49.124Z,99583.56
2019-05-09T09:56:22.969Z,99583.84
2019-05-09T09:58:57.698Z,99578.76
2019-05-09T10:01:31.468Z,99574.24
2019-05-09T10:04:16.732Z,99577.05
2019-05-09T10:06:40.671Z,99585.02
2019-05-09T10:09:14.376Z,99585.02
2019-05-09T10:11:48.473Z,99566.96
2019-05-09T10:14:22.299Z,99579.86
2019-05-09T10:16:58.073Z,99579.86
2019-05-09T10:19:31.408Z,99584.86
2019-05-09T10:22:05.111Z,99584.86
2019-05-09T10:24:38.838Z,99585.92
2019-05-09T10:27:13.383Z,99585.92
2019-05-09T10:29:48.006Z,99581.52
2019-05-09T10:32:21.860Z,99577.84
2019-05-09T10:34:57.885Z,99577.84
2019-05-09T10:37:30.982Z,99578.59
2019-05-09T10:40:05.768Z,99575.46
2019-05-09T10:42:39.510Z,99575.46
2019-05-09T10:45:13.400Z,99573.93
2019-05-09T10:47:48.317Z,99578.95
2019-05-09T10:50:22.185Z,99578.95
2019-05-09T10:52:58.196Z,99570.22
2019-05-09T10:55:31.326Z,99573.15
2019-05-09T10:58:07.865Z,99579.30
2019-05-09T11:00:40.437Z,99567.84
2019-05-09T11:03:14.130Z,99567.84
2019-05-09T11:05:47.828Z,99575.81
2019-05-09T11:08:21.557Z,99575.81
2019-05-09T11:10:55.244Z,99579.41
2019-05-09T11:13:28.948Z,99576.50
2019-05-09T11:16:02.678Z,99582.70
2019-05-09T11:18:36.416Z,99582.70
2019-05-09T11:21:10.119Z,99583.56
2019-05-09T11:23:43.873Z,99582.50
2019-05-09T11:26:18.122Z,99582.50
2019-05-09T11:28:52.094Z,99572.89
2019-05-09T11:31:25.823Z,99577.37
2019-05-09T11:33:59.510Z,99577.37
2019-05-09T11:36:33.227Z,99581.21
2019-05-09T11:39:10.647Z,99581.21
2019-05-09T11:41:42.967Z,99581.79
2019-05-09T11:44:18.452Z,99581.79
2019-05-09T11:46:52.280Z,99579.19
2019-05-09T11:49:25.979Z,99586.85
2019-05-09T11:51:59.694Z,99580.59
2019-05-09T11:54:33.393Z,99580.59
2019-05-09T11:57:07.677Z,99594.41
2019-05-09T11:59:41.523Z,99594.41
2019-05-09T12:02:15.238Z,99600.13
2019-05-09T12:04:49.012Z,99594.36
2019-05-09T12:07:22.713Z,99600.22
2019-05-09T12:09:58.684Z,99595.47
2019-05-09T12:12:31.789Z,99595.47
2019-05-09T12:15:08.778Z,99595.77
2019-05-09T12:17:56.026Z,99594.17
2019-05-09T12:20:18.145Z,99594.17
2019-05-09T12:22:52.040Z,99595.33
2019-05-09T12:25:28.084Z,99598.46
2019-05-09T12:28:01.134Z,99605.50
2019-05-09T12:30:34.837Z,99605.50
2019-05-09T12:33:08.796Z,99600.80
2019-05-09T12:35:42.522Z,99602.06
2019-05-09T12:38:18.087Z,99602.06
2019-05-09T12:40:51.638Z,99610.29
2019-05-09T12:43:25.350Z,99610.29
2019-05-09T12:45:59.042Z,99604.11
2019-05-09T12:48:32.762Z,99604.11
2019-05-09T12:51:08.246Z,99618.59
2019-05-09T12:53:42.073Z,99618.59
2019-05-09T12:56:18.495Z,99617.06
2019-05-09T12:58:51.176Z,99615.39
2019-05-09T13:01:24.876Z,99619.86
2019-05-09T13:03:58.567Z,99611.50
2019-05-09T13:06:32.260Z,99608.02
2019-05-09T13:09:08.401Z,99617.34
2019-05-09T13:11:41.841Z,99617.34
2019-05-09T13:14:15.549Z,99620.57
2019-05-09T13:16:53.340Z,99622.63
2019-05-09T13:19:24.635Z,99622.63
2019-05-09T13:21:58.798Z,99618.84
2019-05-09T13:24:32.650Z,99616.77
2019-05-09T13:27:07.885Z,99620.53
2019-05-09T13:29:41.916Z,99625.81
2019-05-09T13:32:17.888Z,99625.81
2019-05-09T13:34:51.025Z,99627.02
2019-05-09T13:37:29.190Z,99624.45
2019-05-09T13:40:00.131Z,99624.45
2019-05-09T13:42:33.861Z,99626.33
2019-05-09T13:45:08.305Z,99628.88
2019-05-09T13:47:42.106Z,99623.16
2019-05-09T13:50:18.410Z,99618.92
2019-05-09T13:52:51.383Z,99622.69
2019-05-09T13:55:27.426Z,99623.04
2019-05-09T13:58:00.471Z,99621.69
2019-05-09T14:00:34.175Z,99621.69
2019-05-09T14:03:08.285Z,99619.71
2019-05-09T14:05:42.192Z,99619.71
2019-05-09T14:08:18.202Z,99625.94
2019-05-09T14:10:51.277Z,99632.04
2019-05-09T14:13:24.965Z,99632.04
2019-05-09T14:15:58.664Z,99637.02
2019-05-09T14:18:32.361Z,99639.03
2019-05-09T14:21:07.695Z,99636.70
2019-05-09T14:23:50.974Z,99637.72
2019-05-09T14:26:17.988Z,99637.72
2019-05-09T14:28:51.970Z,99641.85
2019-05-09T14:31:29.917Z,99641.85
2019-05-09T14:34:01.048Z,99645.97
2019-05-09T14:36:34.744Z,99645.97
2019-05-09T14:39:09.274Z,99654.29
2019-05-09T14:41:46.997Z,99663.11
2019-05-09T14:44:18.900Z,99664.20
2019-05-09T14:46:52.590Z,99659.38
2019-05-09T14:49:39.670Z,99659.38
2019-05-09T14:52:01.707Z,99662.02
2019-05-09T14:54:35.390Z,99657.36
2019-05-09T14:57:09.759Z,99648.27
2019-05-09T14:59:43.591Z,99655.48
2019-05-09T15:02:17.943Z,99655.48
2019-05-09T15:04:51.775Z,99657.08
2019-05-09T15:07:25.481Z,99653.23
2019-05-09T15:09:59.877Z,99653.23
2019-05-09T15:12:33.748Z,99657.89
2019-05-09T15:15:08.111Z,99661.81
2019-05-09T15:17:41.794Z,99662.27
2019-05-09T15:20:17.879Z,99667.38
2019-05-09T15:22:50.913Z,99667.38
2019-05-09T15:25:24.609Z,99669.00
2019-05-09T15:27:58.363Z,99671.53
2019-05-09T15:30:32.073Z,99667.91
2019-05-09T15:33:08.179Z,99668.62
2019-05-09T15:35:41.163Z,99668.62
2019-05-09T15:38:14.870Z,99674.42
2019-05-09T15:40:48.584Z,99676.22
2019-05-09T15:43:22.329Z,99670.70
2019-05-09T15:45:58.210Z,99670.70
2019-05-09T15:48:31.441Z,99678.54
2019-05-09T15:51:07.413Z,99677.91
2019-05-09T15:53:40.549Z,99677.91
2019-05-09T15:56:14.241Z,99672.75
2019-05-09T15:58:48.999Z,99668.66
2019-05-09T16:01:22.907Z,99678.42
2019-05-09T16:03:56.626Z,99672.38
2019-05-09T16:06:33.063Z,99678.95
2019-05-09T16:09:09.253Z,99671.05
2019-05-09T16:11:41.146Z,99671.05
2019-05-09T16:14:14.843Z,99669.49
2019-05-09T16:16:48.529Z,99671.22
2019-05-09T16:19:22.225Z,99671.22
2019-05-09T16:21:55.929Z,99670.12
2019-05-09T16:24:29.618Z,99663.25
2019-05-09T16:27:03.380Z,99668.00
2019-05-09T16:29:38.264Z,99674.70
2019-05-09T16:32:13.177Z,99674.70
2019-05-09T16:34:46.866Z,99670.61
2019-05-09T16:37:20.545Z,99675.27
2019-05-09T16:39:54.241Z,99666.14
2019-05-09T16:42:28.311Z,99669.10
2019-05-09T16:45:02.383Z,99670.23
2019-05-09T16:47:36.065Z,99670.23
2019-05-09T16:50:12.030Z,99677.02
2019-05-09T16:52:45.180Z,99673.73
2019-05-09T16:55:18.890Z,99673.73
2019-05-09T16:57:52.572Z,99674.92
2019-05-09T17:00:31.506Z,99679.07
2019-05-09T17:03:05.227Z,99679.07
2019-05-09T17:05:38.940Z,99684.55
2019-05-09T17:08:13.442Z,99687.00
2019-05-09T17:10:48.647Z,99690.74
2019-05-09T17:13:22.696Z,99698.69
2019-05-09T17:15:56.416Z,99686.86
2019-05-09T17:18:30.102Z,99695.32
2019-05-09T17:21:17.739Z,99692.70
2019-05-09T17:23:39.220Z,99692.70
2019-05-09T17:26:13.417Z,99697.91
2019-05-09T17:28:48.498Z,99700.23
2019-05-09T17:31:22.426Z,99706.08
2019-05-09T17:33:57.918Z,99706.08
2019-05-09T17:36:31.546Z,99713.11
2019-05-09T17:39:07.776Z,99713.11
2019-05-09T17:41:40.797Z,99718.98
2019-05-09T17:44:14.506Z,99718.98
2019-05-09T17:46:48.229Z,99722.98
2019-05-09T17:49:21.996Z,99722.23
2019-05-09T17:51:58.200Z,99726.75
2019-05-09T17:54:31.098Z,99726.75
2019-05-09T17:57:04.895Z,99728.36
2019-05-09T17:59:39.209Z,99727.71
2019-05-09T18:02:13.531Z,99727.71
2019-05-09T18:04:47.974Z,99732.97
2019-05-09T18:07:22.059Z,99737.86
2019-05-09T18:09:57.928Z,99750.22
2019-05-09T18:12:31.170Z,99750.22
2019-05-09T18:15:07.664Z,99746.93
2019-05-09T18:17:41.461Z,99746.23
2019-05-09T18:20:17.442Z,99746.23
2019-05-09T18:22:50.657Z,99757.28
2019-05-09T18:25:24.452Z,99751.45
2019-05-09T18:27:58.130Z,99751.45
2019-05-09T18:30:31.870Z,99760.81
2019-05-09T18:33:07.548Z,99772.53
2019-05-09T18:35:41.052Z,99772.53
2019-05-09T18:38:28.066Z,99774.09
2019-05-09T18:41:07.047Z,99792.20
2019-05-09T18:43:38.754Z,99792.20
2019-05-09T18:46:12.456Z,99797.16
2019-05-09T18:48:46.186Z,99798.77
2019-05-09T18:51:19.919Z,99800.46
2019-05-09T18:53:53.688Z,99815.00
2019-05-09T18:56:27.408Z,99815.00
2019-05-09T18:59:01.148Z,99812.41
2019-05-09T19:01:34.890Z,99817.01
2019-05-09T19:04:08.603Z,99817.98
2019-05-09T19:06:42.347Z,99815.14
2019-05-09T19:09:16.064Z,99815.14
2019-05-09T19:11:49.857Z,99826.06
2019-05-09T19:14:23.766Z,99824.78
2019-05-09T19:16:57.497Z,99830.50
2019-05-09T19:19:31.204Z,99836.62
2019-05-09T19:22:21.080Z,99836.62
2019-05-09T19:24:40.425Z,99841.52
2019-05-09T19:27:14.180Z,99845.55
2019-05-09T19:29:47.936Z,99845.55
2019-05-09T19:32:21.648Z,99843.55
2019-05-09T19:34:55.447Z,99861.63
2019-05-09T19:37:29.158Z,99861.63
2019-05-09T19:40:07.057Z,99851.22
2019-05-09T19:42:40.777Z,99861.21
2019-05-09T19:45:14.580Z,99861.21
2019-05-09T19:47:48.307Z,99863.98
2019-05-09T19:50:22.024Z,99869.66
2019-05-09T19:52:55.754Z,99869.47
2019-05-09T19:55:29.488Z,99869.47
2019-05-09T19:58:04.169Z,99873.23
2019-05-09T20:00:37.973Z,99877.98
2019-05-09T20:03:11.771Z,99883.59
2019-05-09T20:05:45.508Z,99886.63
2019-05-09T20:08:19.293Z,99888.81
2019-05-09T20:10:52.997Z,99885.70
2019-05-09T20:13:26.740Z,99885.70
2019-05-09T20:16:00.424Z,99894.97
2019-05-09T20:18:34.180Z,99896.09
2019-05-09T20:21:07.902Z,99894.10
2019-05-09T20:23:41.652Z,99894.10
2019-05-09T20:26:15.383Z,99895.58
2019-05-09T20:28:49.082Z,99907.55
2019-05-09T20:31:22.807Z,99909.90
2019-05-09T20:33:56.533Z,99922.89
2019-05-09T20:36:30.244Z,99915.41
2019-05-09T20:39:05.304Z,99918.79
2019-05-09T20:41:39.055Z,99916.00
2019-05-09T20:44:13.218Z,99916.00
2019-05-09T20:46:46.954Z,99912.06
2019-05-09T20:49:20.658Z,99930.44
2019-05-09T20:51:54.360Z,99925.55
2019-05-09T20:54:28.097Z,99925.55
2019-05-09T20:57:01.793Z,99928.06
2019-05-09T20:59:35.525Z,99924.37
2019-05-09T21:02:09.304Z,99924.37
2019-05-09T21:04:43.038Z,99924.59
2019-05-09T21:07:16.750Z,99915.43
2019-05-09T21:09:50.460Z,99922.20
2019-05-09T21:12:24.233Z,99931.16
2019-05-09T21:14:57.947Z,99929.80
2019-05-09T21:17:31.645Z,99935.13
2019-05-09T21:20:05.718Z,99935.13
2019-05-09T21:22:39.426Z,99933.31
2019-05-09T21:25:13.472Z,99945.50
2019-05-09T21:27:47.185Z,99943.88
2019-05-09T21:30:20.910Z,99943.88
2019-05-09T21:32:54.609Z,99967.88
2019-05-09T21:35:28.311Z,99964.09
2019-05-09T21:38:02.048Z,99961.84
2019-05-09T21:40:35.823Z,99966.70
2019-05-09T21:43:09.558Z,99969.36
2019-05-09T21:45:43.266Z,99979.31
2019-05-09T21:48:16.993Z,99979.31
2019-05-09T21:50:50.689Z,99972.80
2019-05-09T21:53:39.557Z,99991.05
2019-05-09T21:55:59.825Z,99987.02
2019-05-09T21:58:33.514Z,99987.02
2019-05-09T22:01:07.210Z,99996.37
2019-05-09T22:03:40.897Z,99994.55
2019-05-09T22:06:14.593Z,99994.13
2019-05-09T22:08:48.319Z,99994.13
2019-05-09T22:11:22.033Z,100003.61
2019-05-09T22:13:55.767Z,100003.61
2019-05-09T22:16:29.462Z,100002.84
2019-05-09T22:19:03.176Z,99999.19
2019-05-09T22:21:36.893Z,99999.19
2019-05-09T22:24:10.595Z,100014.50
2019-05-09T22:26:44.325Z,100018.21
2019-05-09T22:29:18.037Z,100019.69
2019-05-09T22:31:51.750Z,100018.84
2019-05-09T22:34:25.456Z,100020.33
2019-05-09T22:36:59.180Z,100014.83
2019-05-09T22:39:32.911Z,100014.83
2019-05-09T22:42:06.613Z,100020.36
2019-05-09T22:44:40.319Z,100020.36
2019-05-09T22:47:14.039Z,100019.02
2019-05-09T22:49:47.751Z,100011.79
2019-05-09T22:52:21.489Z,100011.79
2019-05-09T22:54:55.302Z,100017.30
2019-05-09T22:57:29.007Z,100021.34
2019-05-09T23:00:03.118Z,100020.14
2019-05-09T23:02:36.885Z,100020.14
2019-05-09T23:05:10.622Z,100024.38
2019-05-09T23:07:44.331Z,100024.38
2019-05-09T23:10:18.096Z,100033.72
2019-05-09T23:12:51.861Z,100033.72
2019-05-09T23:15:25.571Z,100032.11
2019-05-09T23:17:59.286Z,100033.34
2019-05-09T23:20:33.032Z,100044.07
2019-05-09T23:23:06.812Z,100034.53
2019-05-09T23:25:40.517Z,100042.47
2019-05-09T23:28:14.246Z,100042.47
2019-05-09T23:30:47.945Z,100038.80
2019-05-09T23:33:21.673Z,100038.80
2019-05-09T23:35:55.434Z,100050.00
2019-05-09T23:38:29.171Z,100046.92
2019-05-09T23:41:02.886Z,100051.18
2019-05-09T23:43:36.604Z,100050.55
2019-05-09T23:46:10.315Z,100050.55
2019-05-09T23:48:44.042Z,100049.14
2019-05-09T23:51:17.750Z,100048.51
2019-05-09T23:53:51.484Z,100050.78
2019-05-09T23:56:25.180Z,100047.33
2019-05-09T23:58:58.903Z,100052.12
